createdAt,value
2019-02-28T00:02:01.334Z,7.62
2019-02-28T00:04:31.896Z,7.58
2019-02-28T00:06:59.500Z,7.55
2019-02-28T00:09:33.734Z,7.51
2019-02-28T00:12:04.697Z,7.51
2019-02-28T00:14:35.557Z,7.50
2019-02-28T00:17:06.204Z,7.50
2019-02-28T00:19:39.877Z,7.46
2019-02-28T00:22:11.333Z,7.44
2019-02-28T00:24:42.432Z,7.43
2019-02-28T00:27:13.159Z,7.40
2019-02-28T00:29:43.737Z,7.37
2019-02-28T00:32:14.031Z,7.37
2019-02-28T00:34:44.446Z,7.30
2019-02-28T00:37:15.080Z,7.28
2019-02-28T00:39:45.652Z,7.24
2019-02-28T00:42:17.695Z,7.21
2019-02-28T00:44:48.113Z,7.18
2019-02-28T00:47:18.465Z,7.14
2019-02-28T00:49:48.852Z,7.12
2019-02-28T00:52:19.421Z,7.06
2019-02-28T00:54:49.645Z,7.05
2019-02-28T00:57:24.690Z,7.02
2019-02-28T00:59:55.157Z,6.97
2019-02-28T01:02:25.650Z,6.95
2019-02-28T01:04:56.067Z,6.93
2019-02-28T01:07:28.107Z,6.92
2019-02-28T01:10:01.507Z,6.91
2019-02-28T01:12:32.133Z,6.90
2019-02-28T01:15:07.138Z,6.86
2019-02-28T01:17:38.194Z,6.85
2019-02-28T01:20:15.018Z,6.84
2019-02-28T01:22:45.121Z,6.80
2019-02-28T01:25:15.853Z,6.79
2019-02-28T01:27:48.010Z,6.78
2019-02-28T01:30:18.632Z,6.76
2019-02-28T01:32:50.853Z,6.73
2019-02-28T01:35:21.166Z,6.69
2019-02-28T01:37:52.404Z,6.67
2019-02-28T01:40:23.208Z,6.65
2019-02-28T01:42:54.985Z,6.63
2019-02-28T01:45:25.330Z,6.57
2019-02-28T01:47:55.622Z,6.54
2019-02-28T01:50:29.694Z,6.53
2019-02-28T01:53:01.165Z,6.49
2019-02-28T01:55:31.486Z,6.48
2019-02-28T01:58:01.806Z,6.43
2019-02-28T02:00:32.122Z,6.40
2019-02-28T02:03:02.729Z,6.36
2019-02-28T02:05:33.165Z,6.38
2019-02-28T02:08:06.471Z,6.37
2019-02-28T02:10:35.413Z,6.36
2019-02-28T02:13:05.748Z,6.34
2019-02-28T02:15:36.077Z,6.28
2019-02-28T02:18:09.336Z,6.30
2019-02-28T02:20:38.454Z,6.28
2019-02-28T02:23:08.726Z,6.24
2019-02-28T02:25:38.972Z,6.18
2019-02-28T02:28:09.581Z,6.14
2019-02-28T02:30:39.955Z,6.12
2019-02-28T02:33:14.301Z,6.09
2019-02-28T02:35:43.556Z,6.03
2019-02-28T02:38:13.937Z,6.00
2019-02-28T02:40:44.307Z,5.94
2019-02-28T02:43:14.693Z,5.90
2019-02-28T02:45:45.023Z,5.85
2019-02-28T02:48:15.221Z,5.84
2019-02-28T02:50:45.503Z,5.79
2019-02-28T02:53:15.963Z,5.78
2019-02-28T02:55:46.156Z,5.76
2019-02-28T02:58:16.951Z,5.76
2019-02-28T03:00:51.190Z,5.75
2019-02-28T03:03:19.073Z,5.73
2019-02-28T03:05:50.194Z,5.74
2019-02-28T03:08:20.850Z,5.75
2019-02-28T03:10:53.012Z,5.74
2019-02-28T03:13:23.399Z,5.70
2019-02-28T03:15:53.621Z,5.70
2019-02-28T03:18:23.843Z,5.65
2019-02-28T03:20:54.391Z,5.63
2019-02-28T03:23:24.643Z,5.60
2019-02-28T03:25:54.875Z,5.58
2019-02-28T03:28:31.435Z,5.55
2019-02-28T03:30:57.451Z,5.52
2019-02-28T03:33:28.927Z,5.51
2019-02-28T03:35:59.495Z,5.49
2019-02-28T03:38:30.255Z,5.48
2019-02-28T03:41:00.811Z,5.46
2019-02-28T03:43:31.011Z,5.44
2019-02-28T03:46:01.500Z,5.44
2019-02-28T03:48:35.948Z,5.45
2019-02-28T03:51:03.781Z,5.45
2019-02-28T03:53:34.285Z,5.48
2019-02-28T03:56:04.576Z,5.48
2019-02-28T03:58:41.755Z,5.48
2019-02-28T04:01:09.403Z,5.46
2019-02-28T04:03:38.770Z,5.44
2019-02-28T04:06:09.203Z,5.40
2019-02-28T04:08:39.940Z,5.38
2019-02-28T04:11:10.550Z,5.36
2019-02-28T04:13:40.785Z,5.35
2019-02-28T04:16:11.115Z,5.34
2019-02-28T04:18:46.207Z,5.35
2019-02-28T04:21:13.373Z,5.36
2019-02-28T04:23:43.830Z,5.35
2019-02-28T04:26:14.059Z,5.34
2019-02-28T04:28:44.286Z,5.32
2019-02-28T04:31:18.334Z,5.30
2019-02-28T04:33:46.716Z,5.29
2019-02-28T04:36:16.951Z,5.31
2019-02-28T04:38:47.234Z,5.31
2019-02-28T04:41:17.501Z,5.33
2019-02-28T04:43:47.747Z,5.35
2019-02-28T04:46:18.109Z,5.38
2019-02-28T04:48:49.179Z,5.38
2019-02-28T04:51:19.562Z,5.40
2019-02-28T04:53:52.512Z,5.45
2019-02-28T04:56:22.132Z,5.45
2019-02-28T04:58:52.710Z,5.44
2019-02-28T05:01:23.339Z,5.45
2019-02-28T05:03:54.396Z,5.45
2019-02-28T05:06:24.958Z,5.48
2019-02-28T05:08:55.166Z,5.49
2019-02-28T05:11:27.341Z,5.49
2019-02-28T05:13:57.773Z,5.51
2019-02-28T05:16:28.147Z,5.49
2019-02-28T05:19:01.573Z,5.48
2019-02-28T05:21:30.871Z,5.50
2019-02-28T05:24:01.187Z,5.53
2019-02-28T05:26:31.595Z,5.56
2019-02-28T05:29:01.921Z,5.60
2019-02-28T05:31:32.684Z,5.63
2019-02-28T05:34:03.052Z,5.67
2019-02-28T05:36:34.655Z,5.69
2019-02-28T05:39:06.497Z,5.70
2019-02-28T05:41:36.740Z,5.68
2019-02-28T05:44:07.469Z,5.74
2019-02-28T05:46:37.807Z,5.72
2019-02-28T05:49:08.979Z,5.72
2019-02-28T05:51:40.234Z,5.71
2019-02-28T05:54:15.941Z,5.72
2019-02-28T05:56:58.443Z,5.73
2019-02-28T05:59:29.800Z,5.66
2019-02-28T06:02:00.620Z,5.68
2019-02-28T06:04:45.487Z,5.69
2019-02-28T06:07:16.160Z,5.73
2019-02-28T06:09:48.712Z,5.77
2019-02-28T06:12:19.675Z,5.75
2019-02-28T06:14:50.161Z,5.75
2019-02-28T06:17:21.885Z,5.72
2019-02-28T06:19:53.247Z,5.70
2019-02-28T06:22:25.297Z,5.71
2019-02-28T06:24:59.467Z,5.73
2019-02-28T06:27:40.908Z,5.76
2019-02-28T06:30:15.092Z,5.76
2019-02-28T06:32:45.532Z,5.75
2019-02-28T06:35:17.695Z,5.70
2019-02-28T06:37:47.735Z,5.71
2019-02-28T06:40:18.115Z,5.71
2019-02-28T06:42:48.491Z,5.76
2019-02-28T06:45:19.324Z,5.78
2019-02-28T06:47:50.247Z,5.76
2019-02-28T06:50:20.541Z,5.79
2019-02-28T06:52:50.849Z,5.79
2019-02-28T06:55:24.059Z,5.84
2019-02-28T06:57:54.309Z,5.89
2019-02-28T07:00:25.581Z,5.96
2019-02-28T07:02:56.602Z,5.97
2019-02-28T07:05:38.878Z,5.99
2019-02-28T07:08:12.961Z,5.99
2019-02-28T07:10:51.803Z,6.05
2019-02-28T07:13:25.947Z,6.09
2019-02-28T07:16:00.020Z,6.08
2019-02-28T07:18:30.559Z,6.13
2019-02-28T07:21:01.133Z,6.17
2019-02-28T07:23:35.873Z,6.15
2019-02-28T07:26:13.464Z,6.20
2019-02-28T07:28:45.314Z,6.22
2019-02-28T07:31:15.633Z,6.24
2019-02-28T07:33:45.990Z,6.28
2019-02-28T07:36:16.344Z,6.33
2019-02-28T07:38:46.567Z,6.38
2019-02-28T07:41:16.898Z,6.42
2019-02-28T07:43:47.462Z,6.39
2019-02-28T07:46:17.792Z,6.38
2019-02-28T07:48:48.076Z,6.38
2019-02-28T07:51:22.723Z,6.40
2019-02-28T07:53:52.870Z,6.49
2019-02-28T07:56:23.933Z,6.52
2019-02-28T07:58:54.309Z,6.63
2019-02-28T08:01:27.758Z,6.57
2019-02-28T08:03:56.813Z,6.61
2019-02-28T08:06:28.533Z,6.61
2019-02-28T08:09:01.763Z,6.64
2019-02-28T08:11:31.371Z,6.69
2019-02-28T08:14:02.204Z,6.77
2019-02-28T08:16:34.055Z,6.80
2019-02-28T08:19:05.267Z,6.85
2019-02-28T08:21:36.000Z,6.92
2019-02-28T08:24:06.434Z,7.02
2019-02-28T08:26:36.752Z,7.01
2019-02-28T08:29:09.123Z,7.00
2019-02-28T08:31:39.160Z,7.01
2019-02-28T08:34:09.453Z,6.92
2019-02-28T08:36:39.660Z,7.00
2019-02-28T08:39:16.224Z,6.99
2019-02-28T08:41:46.757Z,7.13
2019-02-28T08:44:22.793Z,7.19
2019-02-28T08:46:49.226Z,7.22
2019-02-28T08:49:20.066Z,7.32
2019-02-28T08:51:50.637Z,7.38
2019-02-28T08:54:26.265Z,7.39
2019-02-28T08:56:53.097Z,7.50
2019-02-28T08:59:23.450Z,7.62
2019-02-28T09:01:53.841Z,7.84
2019-02-28T09:04:24.099Z,8.00
2019-02-28T09:06:56.019Z,8.08
2019-02-28T09:09:31.638Z,8.40
2019-02-28T09:12:01.104Z,8.56
2019-02-28T09:14:31.307Z,8.85
2019-02-28T09:17:07.124Z,9.12
2019-02-28T09:19:40.730Z,9.17
2019-02-28T09:22:11.994Z,9.37
2019-02-28T09:24:43.664Z,9.40
2019-02-28T09:27:18.664Z,9.38
2019-02-28T09:29:48.933Z,9.39
2019-02-28T09:32:19.436Z,9.28
2019-02-28T09:34:49.714Z,9.43
2019-02-28T09:37:20.009Z,9.73
2019-02-28T09:39:51.257Z,9.88
2019-02-28T09:42:22.387Z,9.77
2019-02-28T09:44:52.831Z,9.62
2019-02-28T09:47:26.744Z,9.41
2019-02-28T09:49:58.089Z,9.33
2019-02-28T09:52:29.749Z,9.30
2019-02-28T09:54:59.986Z,9.56
2019-02-28T09:57:36.962Z,9.54
2019-02-28T10:00:11.671Z,9.53
2019-02-28T10:02:43.345Z,9.58
2019-02-28T10:05:11.953Z,9.88
2019-02-28T10:07:42.363Z,9.86
2019-02-28T10:10:17.410Z,9.83
2019-02-28T10:12:48.024Z,10.16
2019-02-28T10:15:22.091Z,10.24
2019-02-28T10:17:56.960Z,10.45
2019-02-28T10:20:30.877Z,10.76
2019-02-28T10:23:02.815Z,11.22
2019-02-28T10:25:43.291Z,11.95
2019-02-28T10:28:27.736Z,12.54
2019-02-28T10:31:14.441Z,12.94
2019-02-28T10:33:56.319Z,12.65
2019-02-28T10:36:34.176Z,12.40
2019-02-28T10:39:08.949Z,11.87
2019-02-28T10:41:38.257Z,11.30
2019-02-28T10:44:08.528Z,11.10
2019-02-28T10:46:39.254Z,10.81
2019-02-28T10:49:09.761Z,10.69
2019-02-28T10:51:39.939Z,10.59
2019-02-28T10:54:11.240Z,10.55
2019-02-28T10:56:43.423Z,10.69
2019-02-28T10:59:17.100Z,11.21
2019-02-28T11:01:47.349Z,11.80
2019-02-28T11:04:23.487Z,12.36
2019-02-28T11:06:54.962Z,12.66
2019-02-28T11:09:25.648Z,12.57
2019-02-28T11:11:56.814Z,12.82
2019-02-28T11:14:27.156Z,12.86
2019-02-28T11:16:59.522Z,12.69
2019-02-28T11:19:30.226Z,12.45
2019-02-28T11:22:01.545Z,12.23
2019-02-28T11:24:32.638Z,12.07
2019-02-28T11:27:03.090Z,11.97
2019-02-28T11:29:35.453Z,11.68
2019-02-28T11:32:07.170Z,11.60
2019-02-28T11:34:37.981Z,11.66
2019-02-28T11:37:09.895Z,11.64
2019-02-28T11:39:40.120Z,11.14
2019-02-28T11:43:08.306Z,11.19
2019-02-28T11:45:18.604Z,11.32
2019-02-28T11:47:57.956Z,11.69
2019-02-28T11:50:29.853Z,12.21
2019-02-28T11:53:04.953Z,12.12
2019-02-28T11:55:32.859Z,12.20
2019-02-28T11:58:03.121Z,12.47
2019-02-28T12:00:35.651Z,12.30
2019-02-28T12:03:05.939Z,12.08
2019-02-28T12:05:36.417Z,11.85
2019-02-28T12:08:10.466Z,11.60
2019-02-28T12:10:39.074Z,11.80
2019-02-28T12:13:09.567Z,11.91
2019-02-28T12:15:40.113Z,12.12
2019-02-28T12:18:10.501Z,12.41
2019-02-28T12:20:40.904Z,12.31
2019-02-28T12:23:11.574Z,12.12
2019-02-28T12:25:42.924Z,11.99
2019-02-28T12:28:13.955Z,12.27
2019-02-28T12:30:44.868Z,12.33
2019-02-28T12:33:18.624Z,12.20
2019-02-28T12:35:47.387Z,12.19
2019-02-28T12:38:17.910Z,11.94
2019-02-28T12:40:49.597Z,11.66
2019-02-28T12:43:19.994Z,11.52
2019-02-28T12:45:50.238Z,11.39
2019-02-28T12:48:21.051Z,11.15
2019-02-28T12:50:51.329Z,11.01
2019-02-28T12:53:25.264Z,10.89
2019-02-28T12:55:56.178Z,10.81
2019-02-28T12:58:36.484Z,10.79
2019-02-28T13:01:00.039Z,10.83
2019-02-28T13:03:30.736Z,10.85
2019-02-28T13:06:01.619Z,10.81
2019-02-28T13:08:32.150Z,10.79
2019-02-28T13:11:04.346Z,10.85
2019-02-28T13:13:37.511Z,10.87
2019-02-28T13:16:07.789Z,10.83
2019-02-28T13:18:39.489Z,10.84
2019-02-28T13:21:11.712Z,10.84
2019-02-28T13:23:42.406Z,10.82
2019-02-28T13:26:12.689Z,10.73
2019-02-28T13:28:42.993Z,10.69
2019-02-28T13:31:13.391Z,10.65
2019-02-28T13:33:43.731Z,10.66
2019-02-28T13:36:18.487Z,10.61
2019-02-28T13:38:49.318Z,10.53
2019-02-28T13:41:22.260Z,10.55
2019-02-28T13:43:51.309Z,10.54
2019-02-28T13:46:23.318Z,10.56
2019-02-28T13:48:54.370Z,10.54
2019-02-28T13:51:24.749Z,10.51
2019-02-28T13:53:55.389Z,10.53
2019-02-28T13:56:29.103Z,10.56
2019-02-28T13:58:58.683Z,10.60
2019-02-28T14:01:29.098Z,10.65
2019-02-28T14:03:59.534Z,10.70
2019-02-28T14:06:30.072Z,10.77
2019-02-28T14:09:00.471Z,10.77
2019-02-28T14:11:32.553Z,10.85
2019-02-28T14:14:06.356Z,10.93
2019-02-28T14:16:35.145Z,10.95
2019-02-28T14:19:05.723Z,10.84
2019-02-28T14:21:37.063Z,10.78
2019-02-28T14:24:08.472Z,10.81
2019-02-28T14:26:42.744Z,10.89
2019-02-28T14:29:11.726Z,10.97
2019-02-28T14:31:42.202Z,11.01
2019-02-28T14:34:12.846Z,11.01
2019-02-28T14:36:45.102Z,11.00
2019-02-28T14:39:15.550Z,10.97
2019-02-28T14:41:46.974Z,10.98
2019-02-28T14:44:18.088Z,10.90
2019-02-28T14:46:49.901Z,10.93
2019-02-28T14:49:21.107Z,10.98
2019-02-28T14:51:51.833Z,10.96
2019-02-28T14:54:24.696Z,10.92
2019-02-28T14:56:55.222Z,10.86
2019-02-28T14:59:28.599Z,10.83
2019-02-28T15:01:58.561Z,10.76
2019-02-28T15:04:29.009Z,10.72
2019-02-28T15:07:03.027Z,10.65
2019-02-28T15:09:32.102Z,10.62
2019-02-28T15:12:02.364Z,10.60
2019-02-28T15:14:33.040Z,10.58
2019-02-28T15:17:06.831Z,10.63
2019-02-28T15:19:35.319Z,10.65
2019-02-28T15:22:06.235Z,10.55
2019-02-28T15:24:36.853Z,10.62
2019-02-28T15:27:07.372Z,10.63
2019-02-28T15:29:37.897Z,10.61
2019-02-28T15:32:08.194Z,10.60
2019-02-28T15:34:41.120Z,10.57
2019-02-28T15:37:11.078Z,10.50
2019-02-28T15:39:41.404Z,10.45
2019-02-28T15:42:12.044Z,10.41
2019-02-28T15:44:42.332Z,10.29
2019-02-28T15:47:12.594Z,10.16
2019-02-28T15:49:43.519Z,10.06
2019-02-28T15:52:16.356Z,10.02
2019-02-28T15:54:46.638Z,9.92
2019-02-28T15:57:17.310Z,9.85
2019-02-28T15:59:49.764Z,9.80
2019-02-28T16:02:20.745Z,9.68
2019-02-28T16:04:51.442Z,9.62
2019-02-28T16:07:22.543Z,9.58
2019-02-28T16:09:54.148Z,9.48
2019-02-28T16:12:25.482Z,9.37
2019-02-28T16:14:56.053Z,9.33
2019-02-28T16:17:26.485Z,9.24
2019-02-28T16:19:57.000Z,9.15
2019-02-28T16:22:27.824Z,9.04
2019-02-28T16:24:58.489Z,8.95
2019-02-28T16:27:32.277Z,8.89
2019-02-28T16:30:02.434Z,8.81
2019-02-28T16:32:33.247Z,8.72
2019-02-28T16:35:04.263Z,8.62
2019-02-28T16:37:35.846Z,8.58
2019-02-28T16:40:07.781Z,8.50
2019-02-28T16:42:38.111Z,8.43
2019-02-28T16:45:13.014Z,8.36
2019-02-28T16:47:43.732Z,8.32
2019-02-28T16:50:18.934Z,8.16
2019-02-28T16:52:50.144Z,8.05
2019-02-28T16:55:20.398Z,7.97
2019-02-28T16:57:52.201Z,7.90
2019-02-28T17:00:22.565Z,7.80
2019-02-28T17:02:53.122Z,7.77
2019-02-28T17:05:27.939Z,7.72
2019-02-28T17:07:56.105Z,7.65
2019-02-28T17:10:34.345Z,7.61
2019-02-28T17:13:30.495Z,7.57
2019-02-28T17:16:10.303Z,7.53
2019-02-28T17:18:41.017Z,7.50
2019-02-28T17:21:16.887Z,7.45
2019-02-28T17:23:45.252Z,7.36
2019-02-28T17:26:36.163Z,7.29
2019-02-28T17:29:14.775Z,7.21
2019-02-28T17:31:48.287Z,7.10
2019-02-28T17:34:24.493Z,7.02
2019-02-28T17:36:54.165Z,6.94
2019-02-28T17:39:24.758Z,6.90
2019-02-28T17:41:55.316Z,6.87
2019-02-28T17:44:41.646Z,6.83
2019-02-28T17:47:44.751Z,6.79
2019-02-28T17:50:39.309Z,6.76
2019-02-28T17:53:57.967Z,6.74
2019-02-28T17:56:50.989Z,6.67
2019-02-28T17:59:45.242Z,6.63
2019-02-28T18:02:59.437Z,6.57
2019-02-28T18:06:08.827Z,6.56
2019-02-28T18:09:14.146Z,6.54
2019-02-28T18:12:18.951Z,6.51
2019-02-28T18:15:09.787Z,6.46
2019-02-28T18:18:17.950Z,6.40
2019-02-28T18:21:25.066Z,6.32
2019-02-28T18:24:34.773Z,6.25
2019-02-28T18:27:21.622Z,6.23
2019-02-28T18:30:38.614Z,6.21
2019-02-28T18:33:10.241Z,6.21
2019-02-28T18:35:41.432Z,6.17
2019-02-28T18:38:11.663Z,6.17
2019-02-28T18:40:43.012Z,6.21
2019-02-28T18:43:13.661Z,6.23
2019-02-28T18:45:43.970Z,6.25
2019-02-28T18:48:17.832Z,6.26
2019-02-28T18:50:46.913Z,6.27
2019-02-28T18:53:17.722Z,6.32
2019-02-28T18:55:48.562Z,6.31
2019-02-28T18:58:19.393Z,6.32
2019-02-28T19:00:49.616Z,6.34
2019-02-28T19:03:20.162Z,6.38
2019-02-28T19:05:50.829Z,6.43
2019-02-28T19:08:21.318Z,6.44
2019-02-28T19:10:51.946Z,6.44
2019-02-28T19:13:22.632Z,6.43
2019-02-28T19:15:53.209Z,6.44
2019-02-28T19:18:23.442Z,6.44
2019-02-28T19:20:55.665Z,6.39
2019-02-28T19:23:26.192Z,6.32
2019-02-28T19:25:57.008Z,6.28
2019-02-28T19:28:27.207Z,6.23
2019-02-28T19:30:57.719Z,6.18
2019-02-28T19:33:27.937Z,6.16
2019-02-28T19:35:58.613Z,6.14
2019-02-28T19:38:28.840Z,6.16
2019-02-28T19:40:59.163Z,6.16
2019-02-28T19:43:29.747Z,6.18
2019-02-28T19:46:00.131Z,6.18
2019-02-28T19:48:30.747Z,6.16
2019-02-28T19:51:02.256Z,6.15
2019-02-28T19:53:32.422Z,6.16
2019-02-28T19:56:03.653Z,6.18
2019-02-28T19:58:33.859Z,6.16
2019-02-28T20:01:04.277Z,6.16
2019-02-28T20:03:34.585Z,6.14
2019-02-28T20:06:04.893Z,6.16
2019-02-28T20:08:35.569Z,6.15
2019-02-28T20:11:06.214Z,6.11
2019-02-28T20:13:36.400Z,6.01
2019-02-28T20:16:06.718Z,5.97
2019-02-28T20:18:37.052Z,5.95
2019-02-28T20:21:07.353Z,5.92
2019-02-28T20:23:37.689Z,5.88
2019-02-28T20:26:08.118Z,5.88
2019-02-28T20:28:38.612Z,5.87
2019-02-28T20:31:09.207Z,5.84
2019-02-28T20:33:39.754Z,5.79
2019-02-28T20:36:10.078Z,5.76
2019-02-28T20:38:40.592Z,5.78
2019-02-28T20:41:11.217Z,5.84
2019-02-28T20:43:41.657Z,5.91
2019-02-28T20:46:15.226Z,5.94
2019-02-28T20:48:45.696Z,5.95
2019-02-28T20:51:16.193Z,5.96
2019-02-28T20:53:46.740Z,5.97
2019-02-28T20:56:17.086Z,5.96
2019-02-28T20:58:47.470Z,5.89
2019-02-28T21:01:17.993Z,5.83
2019-02-28T21:03:48.313Z,5.86
2019-02-28T21:06:18.674Z,5.91
2019-02-28T21:08:49.019Z,5.92
2019-02-28T21:11:19.403Z,5.91
2019-02-28T21:13:49.688Z,5.91
2019-02-28T21:16:19.951Z,5.93
2019-02-28T21:18:50.744Z,5.99
2019-02-28T21:21:21.071Z,6.02
2019-02-28T21:23:51.381Z,5.98
2019-02-28T21:26:21.635Z,5.91
2019-02-28T21:28:51.925Z,5.87
2019-02-28T21:31:22.105Z,5.78
2019-02-28T21:33:52.818Z,5.86
2019-02-28T21:36:23.480Z,5.86
2019-02-28T21:38:54.386Z,5.94
2019-02-28T21:41:24.923Z,5.98
2019-02-28T21:43:55.262Z,5.98
2019-02-28T21:46:26.059Z,6.04
2019-02-28T21:48:56.301Z,6.00
2019-02-28T21:51:26.879Z,6.04
2019-02-28T21:53:58.302Z,6.01
2019-02-28T21:56:28.889Z,6.04
2019-02-28T21:58:59.062Z,6.03
2019-02-28T22:01:29.429Z,6.05
2019-02-28T22:03:59.763Z,6.07
2019-02-28T22:06:32.261Z,6.03
2019-02-28T22:09:02.901Z,6.03
2019-02-28T22:11:33.457Z,5.97
2019-02-28T22:14:03.726Z,5.96
2019-02-28T22:16:34.218Z,5.97
2019-02-28T22:19:04.886Z,5.95
2019-02-28T22:21:35.141Z,5.92
2019-02-28T22:24:05.716Z,5.84
2019-02-28T22:26:35.986Z,5.82
2019-02-28T22:29:06.368Z,5.75
2019-02-28T22:31:43.804Z,5.74
2019-02-28T22:34:30.934Z,5.78
2019-02-28T22:37:02.478Z,5.73
2019-02-28T22:39:33.260Z,5.72
2019-02-28T22:42:03.676Z,5.74
2019-02-28T22:44:34.589Z,5.76
2019-02-28T22:47:05.214Z,5.80
2019-02-28T22:49:35.624Z,5.78
2019-02-28T22:52:06.420Z,5.82
2019-02-28T22:54:36.597Z,5.81
2019-02-28T22:57:07.127Z,5.80
2019-02-28T22:59:37.747Z,5.82
2019-02-28T23:02:08.319Z,5.79
2019-02-28T23:04:38.661Z,5.80
2019-02-28T23:07:08.865Z,5.79
2019-02-28T23:09:39.040Z,5.69
2019-02-28T23:12:09.587Z,5.73
2019-02-28T23:14:40.045Z,5.77
2019-02-28T23:17:10.544Z,5.80
2019-02-28T23:19:40.849Z,5.81
2019-02-28T23:22:11.152Z,5.78
2019-02-28T23:24:41.292Z,5.72
2019-02-28T23:27:16.325Z,5.74
2019-02-28T23:30:25.972Z,5.68
2019-02-28T23:33:02.144Z,5.72
2019-02-28T23:35:35.315Z,5.71
2019-02-28T23:38:05.472Z,5.73
2019-02-28T23:40:35.862Z,5.74
2019-02-28T23:43:06.124Z,5.72
2019-02-28T23:45:36.629Z,5.67
2019-02-28T23:48:06.858Z,5.68
2019-02-28T23:50:37.223Z,5.65
2019-02-28T23:53:07.634Z,5.64
2019-02-28T23:55:37.881Z,5.67
2019-02-28T23:58:08.094Z,5.66
